Laredo International Airport
KLRD : now visible

Airfield :











YOU CAN JOIN US ON...

 
LOGIN :

Register | Disclaimer

   EN    FR    IT 

 









Legend :    VFR   Marginal VFR   IFR   Intensive IFR   Very Intensive IFR
Visi :
Ceiling :
>= 8 km
>= 3000ft
5 to 8 km
1000 to 3000 ft
1500m to 5 km
500 to 1000 ft
800 to 1500m
200 to 500 ft
< 800m
< 200 ft
Symbols :   Thunderstorms  Fog  Heavy snow  Heavy precipitations  Wind > 20 kt






- Airport Elevation : 508 ft
- IATA code : LRD


KLRD - Laredo International

CURRENT METAR :
  • 041656Z 15007KT 10SM CLR 34/22 A2994 RMK AO2 SLP134 T03390222 PNO $

EXPIRED METARs :
  • 041556Z 17009KT 10SM CLR 32/22 A2994 RMK AO2 SLP133 T03220217 PNO $
  • 041456Z 17005KT 10SM CLR 29/23 A2995 RMK AO2 SLP136 6//// T02940233 51007 PNO $

TAF KLRD
Valid from the 04 at 13:00 until the 05 at 12:00 UTC


041310Z 0413/0512 14011KT P6SM FEW035
FM050100 12012G20KT P6SM SCT060
FM051000 13007KT P6SM SCT020
TEMPO 0510/0512 BKN020
KZHU FIR / North America



MET'MAP, your aeronautical weather chart ! - Copyright ORBIFLY December 2007 - Disclaimer

ORBIFLY MET'MAP TEAM :

Programming & Development : Alexandra Zaïnal
Concept & original design : Baudouin d'Aumeries
Assistance for programming : Marc-Olivier Méhu
Technical & hardware support : Manuel Goepfert

Contact : metmap@orbifly.com




SOURCES & CREDITS :

   NOAA       Earth
Advisory